sensor_id;sensor_type;location;lat;lon;timestamp;P1;durP1;ratioP1;P2;durP2;ratioP2
4808;SDS011;2418;49.930;8.606;2022-11-27T00:00:57;15.90;;;8.50;;
4808;SDS011;2418;49.930;8.606;2022-11-27T00:03:23;15.80;;;10.50;;
4808;SDS011;2418;49.930;8.606;2022-11-27T00:05:55;18.67;;;9.85;;
4808;SDS011;2418;49.930;8.606;2022-11-27T00:08:22;22.63;;;10.57;;
4808;SDS011;2418;49.930;8.606;2022-11-27T00:10:49;14.75;;;10.30;;
4808;SDS011;2418;49.930;8.606;2022-11-27T00:13:14;25.35;;;12.00;;
4808;SDS011;2418;49.930;8.606;2022-11-27T00:15:40;18.23;;;11.73;;
4808;SDS011;2418;49.930;8.606;2022-11-27T00:18:06;19.88;;;13.00;;
4808;SDS011;2418;49.930;8.606;2022-11-27T00:20:32;22.90;;;12.40;;
4808;SDS011;2418;49.930;8.606;2022-11-27T00:22:58;18.43;;;11.70;;
4808;SDS011;2418;49.930;8.606;2022-11-27T00:25:23;19.20;;;11.50;;
4808;SDS011;2418;49.930;8.606;2022-11-27T00:27:49;20.30;;;11.67;;
4808;SDS011;2418;49.930;8.606;2022-11-27T00:30:14;20.03;;;11.43;;
4808;SDS011;2418;49.930;8.606;2022-11-27T00:32:40;22.40;;;11.07;;
4808;SDS011;2418;49.930;8.606;2022-11-27T00:35:06;15.67;;;10.50;;
4808;SDS011;2418;49.930;8.606;2022-11-27T00:37:32;14.20;;;9.80;;
4808;SDS011;2418;49.930;8.606;2022-11-27T00:39:57;17.20;;;10.57;;
4808;SDS011;2418;49.930;8.606;2022-11-27T00:42:23;17.90;;;10.60;;
4808;SDS011;2418;49.930;8.606;2022-11-27T00:44:48;16.73;;;10.70;;
4808;SDS011;2418;49.930;8.606;2022-11-27T00:47:14;19.67;;;11.13;;
4808;SDS011;2418;49.930;8.606;2022-11-27T00:49:39;18.77;;;11.27;;
4808;SDS011;2418;49.930;8.606;2022-11-27T00:52:05;15.37;;;10.60;;
4808;SDS011;2418;49.930;8.606;2022-11-27T00:54:30;21.17;;;10.87;;
4808;SDS011;2418;49.930;8.606;2022-11-27T00:56:56;17.20;;;10.33;;
4808;SDS011;2418;49.930;8.606;2022-11-27T00:59:21;17.70;;;10.80;;
4808;SDS011;2418;49.930;8.606;2022-11-27T01:01:47;25.05;;;12.45;;
4808;SDS011;2418;49.930;8.606;2022-11-27T01:04:13;21.60;;;11.38;;
4808;SDS011;2418;49.930;8.606;2022-11-27T01:06:39;16.95;;;10.50;;
4808;SDS011;2418;49.930;8.606;2022-11-27T01:09:06;17.80;;;11.32;;
4808;SDS011;2418;49.930;8.606;2022-11-27T01:11:32;21.75;;;12.20;;
4808;SDS011;2418;49.930;8.606;2022-11-27T01:14:00;22.63;;;11.80;;
4808;SDS011;2418;49.930;8.606;2022-11-27T01:16:28;22.98;;;12.10;;
4808;SDS011;2418;49.930;8.606;2022-11-27T01:18:55;18.10;;;12.00;;
4808;SDS011;2418;49.930;8.606;2022-11-27T01:21:22;24.02;;;11.13;;
4808;SDS011;2418;49.930;8.606;2022-11-27T01:23:48;21.25;;;11.50;;
4808;SDS011;2418;49.930;8.606;2022-11-27T01:26:14;22.75;;;11.95;;
4808;SDS011;2418;49.930;8.606;2022-11-27T01:28:41;18.90;;;11.90;;
4808;SDS011;2418;49.930;8.606;2022-11-27T01:31:11;26.60;;;11.80;;
4808;SDS011;2418;49.930;8.606;2022-11-27T01:33:43;22.40;;;12.20;;
4808;SDS011;2418;49.930;8.606;2022-11-27T01:36:10;30.98;;;12.93;;
4808;SDS011;2418;49.930;8.606;2022-11-27T01:38:37;27.10;;;12.50;;
4808;SDS011;2418;49.930;8.606;2022-11-27T01:41:04;32.60;;;13.20;;
4808;SDS011;2418;49.930;8.606;2022-11-27T01:48:54;27.40;;;13.47;;
4808;SDS011;2418;49.930;8.606;2022-11-27T01:51:24;25.25;;;13.30;;
4808;SDS011;2418;49.930;8.606;2022-11-27T01:53:50;19.40;;;12.27;;
4808;SDS011;2418;49.930;8.606;2022-11-27T01:56:17;28.88;;;13.73;;
4808;SDS011;2418;49.930;8.606;2022-11-27T01:58:44;25.27;;;12.82;;
4808;SDS011;2418;49.930;8.606;2022-11-27T02:01:10;29.42;;;13.98;;
4808;SDS011;2418;49.930;8.606;2022-11-27T02:03:36;33.83;;;15.13;;
4808;SDS011;2418;49.930;8.606;2022-11-27T02:06:01;33.20;;;13.73;;
4808;SDS011;2418;49.930;8.606;2022-11-27T02:08:27;31.25;;;15.32;;
4808;SDS011;2418;49.930;8.606;2022-11-27T02:10:58;33.28;;;14.65;;
4808;SDS011;2418;49.930;8.606;2022-11-27T02:19:06;26.40;;;14.77;;
4808;SDS011;2418;49.930;8.606;2022-11-27T02:21:55;29.27;;;14.10;;
4808;SDS011;2418;49.930;8.606;2022-11-27T02:29:38;27.13;;;14.13;;
4808;SDS011;2418;49.930;8.606;2022-11-27T02:32:14;28.25;;;14.52;;
4808;SDS011;2418;49.930;8.606;2022-11-27T02:35:35;29.58;;;14.25;;
4808;SDS011;2418;49.930;8.606;2022-11-27T02:37:50;30.55;;;14.93;;
4808;SDS011;2418;49.930;8.606;2022-11-27T02:40:33;23.00;;;13.70;;
4808;SDS011;2418;49.930;8.606;2022-11-27T02:43:12;30.60;;;14.77;;
4808;SDS011;2418;49.930;8.606;2022-11-27T02:45:43;26.53;;;14.07;;
4808;SDS011;2418;49.930;8.606;2022-11-27T02:48:12;30.55;;;15.52;;
4808;SDS011;2418;49.930;8.606;2022-11-27T02:50:41;34.03;;;14.80;;
4808;SDS011;2418;49.930;8.606;2022-11-27T02:53:10;28.73;;;14.52;;
4808;SDS011;2418;49.930;8.606;2022-11-27T02:56:04;25.55;;;15.68;;
4808;SDS011;2418;49.930;8.606;2022-11-27T02:58:33;28.20;;;14.68;;
4808;SDS011;2418;49.930;8.606;2022-11-27T03:01:01;35.47;;;15.35;;
4808;SDS011;2418;49.930;8.606;2022-11-27T03:03:33;25.70;;;13.98;;
4808;SDS011;2418;49.930;8.606;2022-11-27T03:06:10;28.47;;;15.03;;
4808;SDS011;2418;49.930;8.606;2022-11-27T03:08:45;34.80;;;15.50;;
4808;SDS011;2418;49.930;8.606;2022-11-27T03:11:18;24.95;;;14.02;;
4808;SDS011;2418;49.930;8.606;2022-11-27T03:13:49;41.37;;;15.80;;
4808;SDS011;2418;49.930;8.606;2022-11-27T03:19:11;35.28;;;15.00;;
4808;SDS011;2418;49.930;8.606;2022-11-27T03:21:47;35.63;;;15.40;;
4808;SDS011;2418;49.930;8.606;2022-11-27T03:24:17;24.70;;;15.33;;
4808;SDS011;2418;49.930;8.606;2022-11-27T03:26:43;32.30;;;15.80;;
4808;SDS011;2418;49.930;8.606;2022-11-27T03:29:25;36.47;;;16.60;;
4808;SDS011;2418;49.930;8.606;2022-11-27T03:31:59;34.38;;;15.70;;
4808;SDS011;2418;49.930;8.606;2022-11-27T03:34:26;32.97;;;15.48;;
4808;SDS011;2418;49.930;8.606;2022-11-27T03:36:53;31.10;;;16.10;;
4808;SDS011;2418;49.930;8.606;2022-11-27T03:39:19;37.08;;;16.95;;
4808;SDS011;2418;49.930;8.606;2022-11-27T03:44:45;34.38;;;15.73;;
4808;SDS011;2418;49.930;8.606;2022-11-27T03:47:34;33.38;;;15.70;;
4808;SDS011;2418;49.930;8.606;2022-11-27T03:58:08;37.28;;;16.83;;
4808;SDS011;2418;49.930;8.606;2022-11-27T04:00:40;31.20;;;15.77;;
4808;SDS011;2418;49.930;8.606;2022-11-27T04:03:11;33.78;;;16.50;;
4808;SDS011;2418;49.930;8.606;2022-11-27T04:05:37;29.30;;;16.35;;
4808;SDS011;2418;49.930;8.606;2022-11-27T04:08:03;33.38;;;16.52;;
4808;SDS011;2418;49.930;8.606;2022-11-27T04:10:29;36.78;;;17.00;;
4808;SDS011;2418;49.930;8.606;2022-11-27T04:12:55;39.23;;;17.53;;
4808;SDS011;2418;49.930;8.606;2022-11-27T04:15:21;37.13;;;17.10;;
4808;SDS011;2418;49.930;8.606;2022-11-27T04:17:46;36.00;;;17.33;;
4808;SDS011;2418;49.930;8.606;2022-11-27T04:20:12;40.03;;;17.47;;
4808;SDS011;2418;49.930;8.606;2022-11-27T04:22:38;44.85;;;17.58;;
4808;SDS011;2418;49.930;8.606;2022-11-27T04:25:04;31.73;;;17.47;;
4808;SDS011;2418;49.930;8.606;2022-11-27T04:27:30;36.45;;;17.40;;
4808;SDS011;2418;49.930;8.606;2022-11-27T04:29:55;34.88;;;16.50;;
4808;SDS011;2418;49.930;8.606;2022-11-27T04:32:21;52.30;;;19.10;;
4808;SDS011;2418;49.930;8.606;2022-11-27T04:34:47;39.00;;;18.10;;
4808;SDS011;2418;49.930;8.606;2022-11-27T04:37:12;37.08;;;18.17;;
4808;SDS011;2418;49.930;8.606;2022-11-27T04:39:38;36.65;;;17.73;;
4808;SDS011;2418;49.930;8.606;2022-11-27T04:42:03;44.95;;;18.40;;
4808;SDS011;2418;49.930;8.606;2022-11-27T04:44:29;37.00;;;18.33;;
4808;SDS011;2418;49.930;8.606;2022-11-27T04:46:54;42.90;;;20.20;;
4808;SDS011;2418;49.930;8.606;2022-11-27T04:49:20;47.10;;;19.00;;
4808;SDS011;2418;49.930;8.606;2022-11-27T04:51:45;40.60;;;19.40;;
4808;SDS011;2418;49.930;8.606;2022-11-27T04:54:11;51.22;;;20.52;;
4808;SDS011;2418;49.930;8.606;2022-11-27T04:56:37;51.40;;;19.02;;
4808;SDS011;2418;49.930;8.606;2022-11-27T04:59:03;48.13;;;20.02;;
4808;SDS011;2418;49.930;8.606;2022-11-27T05:01:29;44.95;;;18.98;;
4808;SDS011;2418;49.930;8.606;2022-11-27T05:03:54;38.78;;;20.15;;
4808;SDS011;2418;49.930;8.606;2022-11-27T05:06:20;48.00;;;20.30;;
4808;SDS011;2418;49.930;8.606;2022-11-27T05:08:46;40.35;;;19.50;;
4808;SDS011;2418;49.930;8.606;2022-11-27T05:11:13;40.85;;;20.58;;
4808;SDS011;2418;49.930;8.606;2022-11-27T05:13:40;48.50;;;19.45;;
4808;SDS011;2418;49.930;8.606;2022-11-27T05:16:07;48.28;;;19.55;;
4808;SDS011;2418;49.930;8.606;2022-11-27T05:18:33;39.40;;;18.70;;
4808;SDS011;2418;49.930;8.606;2022-11-27T05:21:00;39.03;;;18.23;;
4808;SDS011;2418;49.930;8.606;2022-11-27T05:23:27;34.40;;;18.80;;
4808;SDS011;2418;49.930;8.606;2022-11-27T05:25:53;45.35;;;19.40;;
4808;SDS011;2418;49.930;8.606;2022-11-27T05:28:19;36.50;;;19.20;;
4808;SDS011;2418;49.930;8.606;2022-11-27T05:30:46;41.78;;;18.63;;
4808;SDS011;2418;49.930;8.606;2022-11-27T05:33:12;45.10;;;19.98;;
4808;SDS011;2418;49.930;8.606;2022-11-27T05:35:39;41.75;;;20.25;;
4808;SDS011;2418;49.930;8.606;2022-11-27T05:38:04;43.30;;;19.90;;
4808;SDS011;2418;49.930;8.606;2022-11-27T05:40:30;47.30;;;19.80;;
4808;SDS011;2418;49.930;8.606;2022-11-27T05:42:55;41.90;;;19.97;;
4808;SDS011;2418;49.930;8.606;2022-11-27T05:45:21;36.87;;;18.80;;
4808;SDS011;2418;49.930;8.606;2022-11-27T05:47:47;35.90;;;18.70;;
4808;SDS011;2418;49.930;8.606;2022-11-27T05:50:12;43.07;;;19.80;;
4808;SDS011;2418;49.930;8.606;2022-11-27T05:52:38;38.03;;;19.30;;
4808;SDS011;2418;49.930;8.606;2022-11-27T05:55:03;37.80;;;20.30;;
4808;SDS011;2418;49.930;8.606;2022-11-27T05:57:29;31.40;;;17.75;;
4808;SDS011;2418;49.930;8.606;2022-11-27T05:59:55;36.03;;;18.77;;
4808;SDS011;2418;49.930;8.606;2022-11-27T06:02:22;33.40;;;17.40;;
4808;SDS011;2418;49.930;8.606;2022-11-27T06:04:47;33.87;;;19.10;;
4808;SDS011;2418;49.930;8.606;2022-11-27T06:07:13;36.37;;;18.60;;
4808;SDS011;2418;49.930;8.606;2022-11-27T06:09:39;34.67;;;18.73;;
4808;SDS011;2418;49.930;8.606;2022-11-27T06:12:04;34.13;;;18.48;;
4808;SDS011;2418;49.930;8.606;2022-11-27T06:14:30;28.67;;;17.50;;
4808;SDS011;2418;49.930;8.606;2022-11-27T06:16:58;37.43;;;17.90;;
4808;SDS011;2418;49.930;8.606;2022-11-27T06:19:27;35.35;;;19.10;;
4808;SDS011;2418;49.930;8.606;2022-11-27T06:21:54;38.15;;;18.52;;
4808;SDS011;2418;49.930;8.606;2022-11-27T06:24:20;35.28;;;17.67;;
4808;SDS011;2418;49.930;8.606;2022-11-27T06:26:46;35.40;;;18.85;;
4808;SDS011;2418;49.930;8.606;2022-11-27T06:29:11;35.38;;;18.40;;
4808;SDS011;2418;49.930;8.606;2022-11-27T06:31:37;34.67;;;17.27;;
4808;SDS011;2418;49.930;8.606;2022-11-27T06:34:04;29.00;;;16.73;;
4808;SDS011;2418;49.930;8.606;2022-11-27T06:36:31;30.30;;;16.07;;
4808;SDS011;2418;49.930;8.606;2022-11-27T06:38:58;27.13;;;16.05;;
4808;SDS011;2418;49.930;8.606;2022-11-27T06:41:24;26.27;;;16.20;;
4808;SDS011;2418;49.930;8.606;2022-11-27T06:43:51;27.05;;;16.13;;
4808;SDS011;2418;49.930;8.606;2022-11-27T06:46:18;24.67;;;14.93;;
4808;SDS011;2418;49.930;8.606;2022-11-27T06:48:46;27.38;;;15.55;;
4808;SDS011;2418;49.930;8.606;2022-11-27T06:51:14;28.23;;;15.90;;
4808;SDS011;2418;49.930;8.606;2022-11-27T06:53:42;29.27;;;17.17;;
4808;SDS011;2418;49.930;8.606;2022-11-27T06:56:09;132.73;;;22.98;;
4808;SDS011;2418;49.930;8.606;2022-11-27T06:58:38;256.52;;;33.40;;
4808;SDS011;2418;49.930;8.606;2022-11-27T07:01:05;551.90;;;53.38;;
4808;SDS011;2418;49.930;8.606;2022-11-27T07:03:32;675.20;;;61.67;;
4808;SDS011;2418;49.930;8.606;2022-11-27T07:05:58;651.87;;;58.77;;
4808;SDS011;2418;49.930;8.606;2022-11-27T07:08:28;575.45;;;56.20;;
4808;SDS011;2418;49.930;8.606;2022-11-27T07:13:58;524.35;;;48.35;;
4808;SDS011;2418;49.930;8.606;2022-11-27T07:16:27;515.88;;;45.72;;
4808;SDS011;2418;49.930;8.606;2022-11-27T07:18:54;459.23;;;42.00;;
4808;SDS011;2418;49.930;8.606;2022-11-27T07:21:22;503.60;;;46.97;;
4808;SDS011;2418;49.930;8.606;2022-11-27T07:23:48;291.63;;;34.88;;
4808;SDS011;2418;49.930;8.606;2022-11-27T07:26:18;223.90;;;30.15;;
4808;SDS011;2418;49.930;8.606;2022-11-27T07:28:45;365.58;;;41.97;;
4808;SDS011;2418;49.930;8.606;2022-11-27T07:31:11;409.52;;;42.53;;
4808;SDS011;2418;49.930;8.606;2022-11-27T07:33:41;331.25;;;37.15;;
4808;SDS011;2418;49.930;8.606;2022-11-27T07:36:14;498.65;;;50.97;;
4808;SDS011;2418;49.930;8.606;2022-11-27T07:38:42;560.90;;;56.05;;
4808;SDS011;2418;49.930;8.606;2022-11-27T07:41:08;545.05;;;53.45;;
4808;SDS011;2418;49.930;8.606;2022-11-27T07:43:34;596.97;;;57.13;;
4808;SDS011;2418;49.930;8.606;2022-11-27T07:46:04;539.97;;;52.60;;
4808;SDS011;2418;49.930;8.606;2022-11-27T07:48:30;492.83;;;49.72;;
4808;SDS011;2418;49.930;8.606;2022-11-27T07:50:56;406.70;;;39.80;;
4808;SDS011;2418;49.930;8.606;2022-11-27T07:53:22;536.63;;;54.22;;
4808;SDS011;2418;49.930;8.606;2022-11-27T07:55:47;550.47;;;54.20;;
4808;SDS011;2418;49.930;8.606;2022-11-27T07:58:13;479.07;;;47.67;;
4808;SDS011;2418;49.930;8.606;2022-11-27T08:00:38;403.73;;;39.53;;
4808;SDS011;2418;49.930;8.606;2022-11-27T08:03:04;498.87;;;47.33;;
4808;SDS011;2418;49.930;8.606;2022-11-27T08:05:32;492.08;;;50.15;;
4808;SDS011;2418;49.930;8.606;2022-11-27T08:07:59;430.70;;;45.80;;
4808;SDS011;2418;49.930;8.606;2022-11-27T08:10:27;454.45;;;46.40;;
4808;SDS011;2418;49.930;8.606;2022-11-27T08:12:54;361.92;;;40.45;;
4808;SDS011;2418;49.930;8.606;2022-11-27T08:15:20;397.05;;;46.25;;
4808;SDS011;2418;49.930;8.606;2022-11-27T08:17:46;486.27;;;52.88;;
4808;SDS011;2418;49.930;8.606;2022-11-27T08:20:12;373.70;;;43.05;;
4808;SDS011;2418;49.930;8.606;2022-11-27T08:22:37;384.80;;;42.60;;
4808;SDS011;2418;49.930;8.606;2022-11-27T08:25:03;473.20;;;48.55;;
4808;SDS011;2418;49.930;8.606;2022-11-27T08:27:30;418.75;;;41.80;;
4808;SDS011;2418;49.930;8.606;2022-11-27T08:29:57;252.95;;;31.35;;
4808;SDS011;2418;49.930;8.606;2022-11-27T08:32:23;247.38;;;31.73;;
4808;SDS011;2418;49.930;8.606;2022-11-27T08:34:49;271.33;;;29.43;;
4808;SDS011;2418;49.930;8.606;2022-11-27T08:37:14;209.50;;;29.07;;
4808;SDS011;2418;49.930;8.606;2022-11-27T08:39:40;321.80;;;33.27;;
4808;SDS011;2418;49.930;8.606;2022-11-27T08:42:05;190.77;;;27.83;;
4808;SDS011;2418;49.930;8.606;2022-11-27T08:44:31;326.43;;;32.70;;
4808;SDS011;2418;49.930;8.606;2022-11-27T08:46:56;279.90;;;32.53;;
4808;SDS011;2418;49.930;8.606;2022-11-27T08:49:22;200.80;;;27.30;;
4808;SDS011;2418;49.930;8.606;2022-11-27T08:51:48;184.60;;;25.90;;
4808;SDS011;2418;49.930;8.606;2022-11-27T08:54:13;165.30;;;24.17;;
4808;SDS011;2418;49.930;8.606;2022-11-27T08:56:42;71.88;;;17.55;;
4808;SDS011;2418;49.930;8.606;2022-11-27T08:59:07;49.47;;;17.80;;
4808;SDS011;2418;49.930;8.606;2022-11-27T09:01:33;68.93;;;18.87;;
4808;SDS011;2418;49.930;8.606;2022-11-27T09:03:59;48.03;;;18.63;;
4808;SDS011;2418;49.930;8.606;2022-11-27T09:06:26;81.65;;;18.20;;
4808;SDS011;2418;49.930;8.606;2022-11-27T09:09:00;74.50;;;20.60;;
4808;SDS011;2418;49.930;8.606;2022-11-27T09:11:29;72.50;;;19.58;;
4808;SDS011;2418;49.930;8.606;2022-11-27T09:13:57;76.72;;;19.77;;
4808;SDS011;2418;49.930;8.606;2022-11-27T09:16:23;82.15;;;21.10;;
4808;SDS011;2418;49.930;8.606;2022-11-27T09:18:49;76.13;;;20.40;;
4808;SDS011;2418;49.930;8.606;2022-11-27T09:21:17;47.20;;;20.07;;
4808;SDS011;2418;49.930;8.606;2022-11-27T09:23:44;28.48;;;17.13;;
4808;SDS011;2418;49.930;8.606;2022-11-27T09:26:14;26.13;;;17.00;;
4808;SDS011;2418;49.930;8.606;2022-11-27T09:28:41;30.17;;;18.00;;
4808;SDS011;2418;49.930;8.606;2022-11-27T09:31:07;30.02;;;17.75;;
4808;SDS011;2418;49.930;8.606;2022-11-27T09:33:35;33.80;;;18.08;;
4808;SDS011;2418;49.930;8.606;2022-11-27T09:36:03;32.90;;;18.80;;
4808;SDS011;2418;49.930;8.606;2022-11-27T09:38:31;28.65;;;17.67;;
4808;SDS011;2418;49.930;8.606;2022-11-27T09:40:59;26.57;;;17.13;;
4808;SDS011;2418;49.930;8.606;2022-11-27T09:43:41;24.58;;;15.10;;
4808;SDS011;2418;49.930;8.606;2022-11-27T09:46:23;21.40;;;14.50;;
4808;SDS011;2418;49.930;8.606;2022-11-27T09:49:04;20.00;;;14.07;;
4808;SDS011;2418;49.930;8.606;2022-11-27T09:56:40;20.83;;;14.50;;
4808;SDS011;2418;49.930;8.606;2022-11-27T09:59:20;21.58;;;14.98;;
4808;SDS011;2418;49.930;8.606;2022-11-27T10:01:48;25.30;;;15.32;;
4808;SDS011;2418;49.930;8.606;2022-11-27T10:04:14;23.00;;;14.52;;
4808;SDS011;2418;49.930;8.606;2022-11-27T10:12:25;25.65;;;15.18;;
4808;SDS011;2418;49.930;8.606;2022-11-27T10:20:21;20.38;;;14.50;;
4808;SDS011;2418;49.930;8.606;2022-11-27T10:28:46;18.73;;;13.82;;
4808;SDS011;2418;49.930;8.606;2022-11-27T10:31:21;18.58;;;13.40;;
4808;SDS011;2418;49.930;8.606;2022-11-27T10:33:55;19.92;;;13.70;;
4808;SDS011;2418;49.930;8.606;2022-11-27T10:39:02;15.57;;;12.32;;
4808;SDS011;2418;49.930;8.606;2022-11-27T10:41:36;17.23;;;12.60;;
4808;SDS011;2418;49.930;8.606;2022-11-27T10:44:19;14.13;;;12.60;;
4808;SDS011;2418;49.930;8.606;2022-11-27T10:47:18;15.70;;;11.90;;
4808;SDS011;2418;49.930;8.606;2022-11-27T10:49:46;14.13;;;12.05;;
4808;SDS011;2418;49.930;8.606;2022-11-27T10:52:14;13.53;;;11.70;;
4808;SDS011;2418;49.930;8.606;2022-11-27T10:54:41;12.50;;;11.20;;
4808;SDS011;2418;49.930;8.606;2022-11-27T10:57:28;15.75;;;12.50;;
4808;SDS011;2418;49.930;8.606;2022-11-27T11:00:21;16.23;;;12.38;;
4808;SDS011;2418;49.930;8.606;2022-11-27T11:02:57;14.40;;;11.60;;
4808;SDS011;2418;49.930;8.606;2022-11-27T11:05:24;13.90;;;11.88;;
4808;SDS011;2418;49.930;8.606;2022-11-27T11:07:53;17.13;;;12.00;;
4808;SDS011;2418;49.930;8.606;2022-11-27T11:13:03;13.87;;;12.37;;
4808;SDS011;2418;49.930;8.606;2022-11-27T11:15:47;15.00;;;12.10;;
4808;SDS011;2418;49.930;8.606;2022-11-27T11:18:23;16.23;;;11.83;;
4808;SDS011;2418;49.930;8.606;2022-11-27T11:20:54;14.43;;;9.95;;
4808;SDS011;2418;49.930;8.606;2022-11-27T11:23:23;14.70;;;11.30;;
4808;SDS011;2418;49.930;8.606;2022-11-27T11:25:55;14.47;;;10.87;;
4808;SDS011;2418;49.930;8.606;2022-11-27T11:28:24;16.23;;;11.30;;
4808;SDS011;2418;49.930;8.606;2022-11-27T11:30:51;15.23;;;11.43;;
4808;SDS011;2418;49.930;8.606;2022-11-27T11:33:20;12.90;;;11.50;;
4808;SDS011;2418;49.930;8.606;2022-11-27T11:35:51;13.05;;;10.52;;
4808;SDS011;2418;49.930;8.606;2022-11-27T11:38:30;14.45;;;11.27;;
4808;SDS011;2418;49.930;8.606;2022-11-27T11:40:58;12.40;;;11.10;;
4808;SDS011;2418;49.930;8.606;2022-11-27T11:43:30;17.40;;;12.10;;
4808;SDS011;2418;49.930;8.606;2022-11-27T11:46:18;12.20;;;10.85;;
4808;SDS011;2418;49.930;8.606;2022-11-27T11:54:49;12.80;;;11.10;;
4808;SDS011;2418;49.930;8.606;2022-11-27T11:57:56;13.30;;;11.90;;
4808;SDS011;2418;49.930;8.606;2022-11-27T12:00:30;14.90;;;12.40;;
4808;SDS011;2418;49.930;8.606;2022-11-27T12:06:53;13.73;;;12.10;;
4808;SDS011;2418;49.930;8.606;2022-11-27T12:12:03;14.02;;;11.70;;
4808;SDS011;2418;49.930;8.606;2022-11-27T12:14:40;12.93;;;11.30;;
4808;SDS011;2418;49.930;8.606;2022-11-27T12:22:59;11.00;;;9.80;;
4808;SDS011;2418;49.930;8.606;2022-11-27T12:25:55;14.80;;;11.50;;
4808;SDS011;2418;49.930;8.606;2022-11-27T12:29:02;18.15;;;12.27;;
4808;SDS011;2418;49.930;8.606;2022-11-27T12:40:27;17.73;;;12.93;;
4808;SDS011;2418;49.930;8.606;2022-11-27T12:43:11;22.85;;;14.15;;
4808;SDS011;2418;49.930;8.606;2022-11-27T12:48:42;21.58;;;14.38;;
4808;SDS011;2418;49.930;8.606;2022-11-27T12:51:29;18.63;;;13.77;;
4808;SDS011;2418;49.930;8.606;2022-11-27T12:56:45;20.75;;;15.35;;
4808;SDS011;2418;49.930;8.606;2022-11-27T13:02:24;22.38;;;14.68;;
4808;SDS011;2418;49.930;8.606;2022-11-27T13:05:05;20.38;;;14.27;;
4808;SDS011;2418;49.930;8.606;2022-11-27T13:10:25;17.90;;;14.50;;
4808;SDS011;2418;49.930;8.606;2022-11-27T13:13:14;17.60;;;13.30;;
4808;SDS011;2418;49.930;8.606;2022-11-27T13:21:08;17.27;;;13.98;;
4808;SDS011;2418;49.930;8.606;2022-11-27T13:23:38;17.70;;;13.57;;
4808;SDS011;2418;49.930;8.606;2022-11-27T13:26:05;22.03;;;15.50;;
4808;SDS011;2418;49.930;8.606;2022-11-27T13:28:46;24.63;;;15.50;;
4808;SDS011;2418;49.930;8.606;2022-11-27T13:31:23;28.52;;;17.10;;
4808;SDS011;2418;49.930;8.606;2022-11-27T13:33:51;28.35;;;17.90;;
4808;SDS011;2418;49.930;8.606;2022-11-27T13:36:29;23.67;;;17.27;;
4808;SDS011;2418;49.930;8.606;2022-11-27T13:38:57;26.92;;;17.77;;
4808;SDS011;2418;49.930;8.606;2022-11-27T13:41:30;29.33;;;19.15;;
4808;SDS011;2418;49.930;8.606;2022-11-27T13:44:26;31.60;;;20.30;;
4808;SDS011;2418;49.930;8.606;2022-11-27T13:49:35;47.45;;;30.73;;
4808;SDS011;2418;49.930;8.606;2022-11-27T13:52:11;32.80;;;23.17;;
4808;SDS011;2418;49.930;8.606;2022-11-27T13:55:06;28.08;;;19.25;;
4808;SDS011;2418;49.930;8.606;2022-11-27T13:57:34;23.05;;;17.17;;
4808;SDS011;2418;49.930;8.606;2022-11-27T14:00:09;24.85;;;18.08;;
4808;SDS011;2418;49.930;8.606;2022-11-27T14:02:44;25.83;;;18.15;;
4808;SDS011;2418;49.930;8.606;2022-11-27T14:05:14;22.95;;;19.00;;
4808;SDS011;2418;49.930;8.606;2022-11-27T14:07:43;32.38;;;20.98;;
4808;SDS011;2418;49.930;8.606;2022-11-27T14:10:16;30.35;;;20.52;;
4808;SDS011;2418;49.930;8.606;2022-11-27T14:13:05;25.45;;;18.50;;
4808;SDS011;2418;49.930;8.606;2022-11-27T14:15:34;32.35;;;20.10;;
4808;SDS011;2418;49.930;8.606;2022-11-27T14:20:44;25.30;;;17.92;;
4808;SDS011;2418;49.930;8.606;2022-11-27T14:26:05;24.40;;;17.27;;
4808;SDS011;2418;49.930;8.606;2022-11-27T14:28:44;22.95;;;16.52;;
4808;SDS011;2418;49.930;8.606;2022-11-27T14:31:21;28.25;;;18.05;;
4808;SDS011;2418;49.930;8.606;2022-11-27T14:33:54;27.42;;;18.75;;
4808;SDS011;2418;49.930;8.606;2022-11-27T14:36:25;25.00;;;18.20;;
4808;SDS011;2418;49.930;8.606;2022-11-27T14:38:54;23.80;;;18.65;;
4808;SDS011;2418;49.930;8.606;2022-11-27T14:41:25;25.30;;;18.88;;
4808;SDS011;2418;49.930;8.606;2022-11-27T14:43:58;28.55;;;17.88;;
4808;SDS011;2418;49.930;8.606;2022-11-27T14:46:24;25.08;;;17.52;;
4808;SDS011;2418;49.930;8.606;2022-11-27T14:48:51;25.60;;;18.50;;
4808;SDS011;2418;49.930;8.606;2022-11-27T14:51:21;30.37;;;19.77;;
4808;SDS011;2418;49.930;8.606;2022-11-27T14:53:49;29.85;;;20.35;;
4808;SDS011;2418;49.930;8.606;2022-11-27T14:56:18;40.72;;;20.65;;
4808;SDS011;2418;49.930;8.606;2022-11-27T14:58:53;33.20;;;20.73;;
4808;SDS011;2418;49.930;8.606;2022-11-27T15:01:21;30.23;;;18.63;;
4808;SDS011;2418;49.930;8.606;2022-11-27T15:03:59;31.17;;;19.40;;
4808;SDS011;2418;49.930;8.606;2022-11-27T15:06:30;33.90;;;21.10;;
4808;SDS011;2418;49.930;8.606;2022-11-27T15:09:00;30.63;;;19.52;;
4808;SDS011;2418;49.930;8.606;2022-11-27T15:11:26;29.00;;;19.67;;
4808;SDS011;2418;49.930;8.606;2022-11-27T15:13:54;31.03;;;20.03;;
4808;SDS011;2418;49.930;8.606;2022-11-27T15:16:23;30.38;;;20.55;;
4808;SDS011;2418;49.930;8.606;2022-11-27T15:18:53;31.00;;;20.95;;
4808;SDS011;2418;49.930;8.606;2022-11-27T15:21:22;33.45;;;19.05;;
4808;SDS011;2418;49.930;8.606;2022-11-27T15:23:50;31.90;;;20.83;;
4808;SDS011;2418;49.930;8.606;2022-11-27T15:26:28;32.58;;;20.77;;
4808;SDS011;2418;49.930;8.606;2022-11-27T15:28:58;42.30;;;25.85;;
4808;SDS011;2418;49.930;8.606;2022-11-27T15:31:25;32.97;;;21.50;;
4808;SDS011;2418;49.930;8.606;2022-11-27T15:33:55;34.33;;;19.60;;
4808;SDS011;2418;49.930;8.606;2022-11-27T15:36:22;32.63;;;21.50;;
4808;SDS011;2418;49.930;8.606;2022-11-27T15:38:48;30.63;;;20.05;;
4808;SDS011;2418;49.930;8.606;2022-11-27T15:41:22;33.42;;;20.73;;
4808;SDS011;2418;49.930;8.606;2022-11-27T15:43:52;31.08;;;20.35;;
4808;SDS011;2418;49.930;8.606;2022-11-27T15:46:21;32.30;;;21.10;;
4808;SDS011;2418;49.930;8.606;2022-11-27T15:48:49;34.00;;;22.17;;
4808;SDS011;2418;49.930;8.606;2022-11-27T15:51:15;31.57;;;20.93;;
4808;SDS011;2418;49.930;8.606;2022-11-27T15:53:41;35.80;;;24.02;;
4808;SDS011;2418;49.930;8.606;2022-11-27T15:56:06;34.42;;;20.42;;
4808;SDS011;2418;49.930;8.606;2022-11-27T15:58:33;28.83;;;18.53;;
4808;SDS011;2418;49.930;8.606;2022-11-27T16:00:58;29.40;;;19.80;;
4808;SDS011;2418;49.930;8.606;2022-11-27T16:03:24;32.17;;;21.00;;
4808;SDS011;2418;49.930;8.606;2022-11-27T16:05:49;38.53;;;21.33;;
4808;SDS011;2418;49.930;8.606;2022-11-27T16:08:15;29.67;;;20.60;;
4808;SDS011;2418;49.930;8.606;2022-11-27T16:10:41;32.37;;;19.87;;
4808;SDS011;2418;49.930;8.606;2022-11-27T16:13:07;31.98;;;19.17;;
4808;SDS011;2418;49.930;8.606;2022-11-27T16:15:33;35.10;;;22.00;;
4808;SDS011;2418;49.930;8.606;2022-11-27T16:17:59;34.10;;;22.03;;
4808;SDS011;2418;49.930;8.606;2022-11-27T16:20:24;32.80;;;21.07;;
4808;SDS011;2418;49.930;8.606;2022-11-27T16:22:50;35.17;;;22.58;;
4808;SDS011;2418;49.930;8.606;2022-11-27T16:25:16;34.03;;;22.00;;
4808;SDS011;2418;49.930;8.606;2022-11-27T16:27:42;31.80;;;20.73;;
4808;SDS011;2418;49.930;8.606;2022-11-27T16:30:08;29.80;;;20.57;;
4808;SDS011;2418;49.930;8.606;2022-11-27T16:32:37;33.17;;;20.67;;
4808;SDS011;2418;49.930;8.606;2022-11-27T16:35:03;32.75;;;21.70;;
4808;SDS011;2418;49.930;8.606;2022-11-27T16:37:29;37.17;;;22.42;;
4808;SDS011;2418;49.930;8.606;2022-11-27T16:39:55;34.70;;;22.20;;
4808;SDS011;2418;49.930;8.606;2022-11-27T16:42:20;31.60;;;21.40;;
4808;SDS011;2418;49.930;8.606;2022-11-27T16:44:46;32.40;;;21.80;;
4808;SDS011;2418;49.930;8.606;2022-11-27T16:47:12;36.05;;;22.08;;
4808;SDS011;2418;49.930;8.606;2022-11-27T16:49:38;37.77;;;22.50;;
4808;SDS011;2418;49.930;8.606;2022-11-27T16:52:03;32.17;;;20.60;;